Soaring Guidance
Issued by NWS Reno, NV

Home | Current Version | Previous Version | Text Only | Print | Product List | Glossary On
Versions: 1 2 3 4 5 6 7 8 9 10 11 12 13 14 15 16
071
UXUS97 KREV 261355
SRGREV

SOARING FORECAST
NATIONAL WEATHER SERVICE - RENO NV
700 AM PDT THU MAY 26 2016

THIS SOARING FORECAST IS FOR THE EASTERN SIERRA AND WESTERN NEVADA
WITH SPECIFIC INDICES FOR THE GREATER RENO AREA.

THIS FORECAST IS PREPARED DAILY BY 700 AM AND IS NOT UPDATED.

FOR CURRENT FLIGHT CONDITIONS...FORECASTS...AND ADVISORIES...ACCESS
YOUR LOCAL BRIEFING OUTLET OR FLIGHT SERVICE STATION.

*******************************************************************
FORECASTED LOCAL INDICES FOR RENO:        TODAY     YESTERDAY
FORECASTED MAX TEMP AT RENO (DEG F).....     73          71
FORECASTED TRIGGER TEMPERATURE (DEG F)..     58          53
   EXCEEDED YESTERDAY BY 855 AM PDT
FORECASTED MAXIMUM ALTITUDE (FT MSL)....  13800       16000
FORECASTED SOARING INDEX (FPM)..........    654         930
FORECASTED K-INDEX.........VALID 18Z....     24          29
FORECASTED K-INDEX.........VALID 00Z....     28          31
FORECASTED LIFTED INDEX....VALID 18Z....      3           0
FORECASTED LIFTED INDEX....VALID 00Z....      3          -1

AFTERNOON WINDS ALOFT FORECAST
MSL (FT) WIND/TEMP
9000  3107/+07
10000 3107/+04
12000 3207/-01
14000 3209/-05
16000 3211/-10
18000 3318/-15
24000 3224/-27
30000 3336/-42
34000 3242/-52
39000 3243/-61

SLIDE MOUNTAIN DATA:
     DATE       TIME     TEMP  DEWPT   RH         WIND (MPH)
                        (F)   (F)           | DIR  SPEED GUST
2016-05-26    05:20      31    24     81    | 347   17   26
2016-05-26    05:00      31    24     80    | 344   16   24
2016-05-26    04:50      31    23     79    | 348   16   22
2016-05-26    04:30      31    24     82    | 349   16   20

RENO TAF FORECAST:
KRNO 261120Z 2612/2712 VRB03KT P6SM BKN090
     FM262000 34010KT P6SM SCT080
     FM270600 VRB03KT P6SM SKC

CARSON CITY TAF FORECAST:
KCXP 261120Z 2612/2712 VRB03KT P6SM SCT090
     FM262000 30010KT P6SM SCT080
     FM270300 VRB03KT P6SM SKC

OUTLOOK FOR THE RENO-CARSON CITY-MINDEN AREA:
.FRIDAY...SUNNY IN THE MORNING THEN BECOMING PARTLY CLOUDY. HIGHS
71 TO 76. NORTHWEST WINDS 10 TO 15 MPH.

SUNRISE AND SUNSET
MAY 26 2016...........SUNRISE   537 AM PDT   SUNSET   816 PM PDT
MAY 27 2016...........SUNRISE   536 AM PDT   SUNSET   817 PM PDT



USA.gov is the U.S. government's official web portal to all federal, state and local government web resources and services.